Eastport, Idaho
Current Conditions -  °F | °C
As of 11:15 PM on Thursday 18 Dec 2014 (Local Time) from K65S Reporting Station
Overcast Overcast  
Wind Chill: 36°   Ceiling: 3200
Heat Index: 36°   Visibility: 10mi
Dew Point: 36°   Wind: 3mph
Humidity: 100%   Direction: 110°ESE
Pressure: 29.95"   Gusts: NA
Location:  49°N, 116.18°W
Report Text: K65S 190715Z AUTO 11003KT 10SM BKN032 OVC039 02/02 A2995 RMK AO2
Loading
Personal Weather Stations






























Interactive Weather Map New forecast layout! Learn more

10-Day Weather Forecast

Advertisements
Track Severe Weather on mobile